sensor_id;sensor_type;location;lat;lon;timestamp;temperature;humidity
52555;DHT22;38455;52.710;6.502;2022-12-07T00:01:20;3.70;99.90
52555;DHT22;38455;52.710;6.502;2022-12-07T00:03:47;3.80;99.90
52555;DHT22;38455;52.710;6.502;2022-12-07T00:06:14;3.70;99.90
52555;DHT22;38455;52.710;6.502;2022-12-07T00:08:40;3.70;99.90
52555;DHT22;38455;52.710;6.502;2022-12-07T00:11:17;3.70;99.90
52555;DHT22;38455;52.710;6.502;2022-12-07T00:13:43;3.60;99.90
52555;DHT22;38455;52.710;6.502;2022-12-07T00:16:19;3.60;99.90
52555;DHT22;38455;52.710;6.502;2022-12-07T00:18:45;3.50;99.90
52555;DHT22;38455;52.710;6.502;2022-12-07T00:21:16;3.50;99.90
52555;DHT22;38455;52.710;6.502;2022-12-07T00:23:43;3.50;99.90
52555;DHT22;38455;52.710;6.502;2022-12-07T00:26:18;3.50;99.90
52555;DHT22;38455;52.710;6.502;2022-12-07T00:29:05;3.40;99.90
52555;DHT22;38455;52.710;6.502;2022-12-07T00:31:34;3.40;99.90
52555;DHT22;38455;52.710;6.502;2022-12-07T00:34:01;3.40;99.90
52555;DHT22;38455;52.710;6.502;2022-12-07T00:36:27;3.40;99.90
52555;DHT22;38455;52.710;6.502;2022-12-07T00:38:53;3.40;99.90
52555;DHT22;38455;52.710;6.502;2022-12-07T00:41:24;3.40;99.90
52555;DHT22;38455;52.710;6.502;2022-12-07T00:43:50;3.40;99.90
52555;DHT22;38455;52.710;6.502;2022-12-07T00:46:17;3.40;99.90
52555;DHT22;38455;52.710;6.502;2022-12-07T00:48:43;3.40;99.90
52555;DHT22;38455;52.710;6.502;2022-12-07T00:51:11;3.40;99.90
52555;DHT22;38455;52.710;6.502;2022-12-07T00:53:38;3.50;99.90
52555;DHT22;38455;52.710;6.502;2022-12-07T00:56:24;3.60;99.90
52555;DHT22;38455;52.710;6.502;2022-12-07T00:58:58;3.70;99.90
52555;DHT22;38455;52.710;6.502;2022-12-07T01:01:27;3.70;99.90
52555;DHT22;38455;52.710;6.502;2022-12-07T01:03:53;3.60;99.90
52555;DHT22;38455;52.710;6.502;2022-12-07T01:06:20;3.60;99.90
52555;DHT22;38455;52.710;6.502;2022-12-07T01:08:46;3.60;99.90
52555;DHT22;38455;52.710;6.502;2022-12-07T01:11:14;3.50;99.90
52555;DHT22;38455;52.710;6.502;2022-12-07T01:13:41;3.50;99.90
52555;DHT22;38455;52.710;6.502;2022-12-07T01:16:07;3.50;99.90
52555;DHT22;38455;52.710;6.502;2022-12-07T01:18:35;3.50;99.90
52555;DHT22;38455;52.710;6.502;2022-12-07T01:21:16;3.60;99.90
52555;DHT22;38455;52.710;6.502;2022-12-07T01:23:42;3.60;99.90
52555;DHT22;38455;52.710;6.502;2022-12-07T01:26:12;3.60;99.90
52555;DHT22;38455;52.710;6.502;2022-12-07T01:28:38;3.70;99.90
52555;DHT22;38455;52.710;6.502;2022-12-07T01:31:07;3.70;99.90
52555;DHT22;38455;52.710;6.502;2022-12-07T01:33:35;3.80;99.90
52555;DHT22;38455;52.710;6.502;2022-12-07T01:36:06;3.80;99.90
52555;DHT22;38455;52.710;6.502;2022-12-07T01:38:32;3.80;99.90
52555;DHT22;38455;52.710;6.502;2022-12-07T01:40:59;3.90;99.90
52555;DHT22;38455;52.710;6.502;2022-12-07T01:43:28;3.80;99.90
52555;DHT22;38455;52.710;6.502;2022-12-07T01:45:54;3.70;99.90
52555;DHT22;38455;52.710;6.502;2022-12-07T01:48:29;3.70;99.90
52555;DHT22;38455;52.710;6.502;2022-12-07T01:50:56;3.70;99.90
52555;DHT22;38455;52.710;6.502;2022-12-07T01:53:24;3.60;99.90
52555;DHT22;38455;52.710;6.502;2022-12-07T01:55:52;3.50;99.90
52555;DHT22;38455;52.710;6.502;2022-12-07T01:58:18;3.50;99.90
52555;DHT22;38455;52.710;6.502;2022-12-07T02:00:45;3.40;99.90
52555;DHT22;38455;52.710;6.502;2022-12-07T02:03:22;3.40;99.90
52555;DHT22;38455;52.710;6.502;2022-12-07T02:05:50;3.40;99.90
52555;DHT22;38455;52.710;6.502;2022-12-07T02:08:16;3.30;99.90
52555;DHT22;38455;52.710;6.502;2022-12-07T02:10:42;3.20;99.90
52555;DHT22;38455;52.710;6.502;2022-12-07T02:13:31;3.20;99.90
52555;DHT22;38455;52.710;6.502;2022-12-07T02:21:45;3.00;99.90
52555;DHT22;38455;52.710;6.502;2022-12-07T02:24:35;3.10;99.90
52555;DHT22;38455;52.710;6.502;2022-12-07T02:30:19;3.00;99.90
52555;DHT22;38455;52.710;6.502;2022-12-07T02:33:05;3.00;99.90
52555;DHT22;38455;52.710;6.502;2022-12-07T02:35:41;2.90;99.90
52555;DHT22;38455;52.710;6.502;2022-12-07T02:38:26;2.90;99.90
52555;DHT22;38455;52.710;6.502;2022-12-07T02:40:57;2.80;99.90
52555;DHT22;38455;52.710;6.502;2022-12-07T02:43:49;2.70;99.90
52555;DHT22;38455;52.710;6.502;2022-12-07T02:46:17;2.70;99.90
52555;DHT22;38455;52.710;6.502;2022-12-07T02:49:03;2.70;99.90
52555;DHT22;38455;52.710;6.502;2022-12-07T02:51:31;2.60;99.90
52555;DHT22;38455;52.710;6.502;2022-12-07T02:53:56;2.60;99.90
52555;DHT22;38455;52.710;6.502;2022-12-07T03:18:02;3.10;99.90
52555;DHT22;38455;52.710;6.502;2022-12-07T03:20:29;3.10;99.90
52555;DHT22;38455;52.710;6.502;2022-12-07T03:22:59;3.10;99.90
52555;DHT22;38455;52.710;6.502;2022-12-07T03:25:26;3.10;99.90
52555;DHT22;38455;52.710;6.502;2022-12-07T03:27:56;3.10;99.90
52555;DHT22;38455;52.710;6.502;2022-12-07T03:30:27;3.10;99.90
52555;DHT22;38455;52.710;6.502;2022-12-07T03:33:10;3.10;99.90
52555;DHT22;38455;52.710;6.502;2022-12-07T03:35:54;3.10;99.90
52555;DHT22;38455;52.710;6.502;2022-12-07T03:38:27;3.10;99.90
52555;DHT22;38455;52.710;6.502;2022-12-07T03:41:01;3.10;99.90
52555;DHT22;38455;52.710;6.502;2022-12-07T03:43:29;3.10;99.90
52555;DHT22;38455;52.710;6.502;2022-12-07T03:49:16;3.10;99.90
52555;DHT22;38455;52.710;6.502;2022-12-07T03:52:07;3.10;99.90
52555;DHT22;38455;52.710;6.502;2022-12-07T03:54:37;3.10;99.90
52555;DHT22;38455;52.710;6.502;2022-12-07T03:57:05;3.00;99.90
52555;DHT22;38455;52.710;6.502;2022-12-07T03:59:33;2.90;99.90
52555;DHT22;38455;52.710;6.502;2022-12-07T04:02:04;2.80;99.90
52555;DHT22;38455;52.710;6.502;2022-12-07T04:04:31;2.70;99.90
52555;DHT22;38455;52.710;6.502;2022-12-07T04:06:57;2.70;99.90
52555;DHT22;38455;52.710;6.502;2022-12-07T04:09:23;2.60;99.90
52555;DHT22;38455;52.710;6.502;2022-12-07T04:11:48;2.70;99.90
52555;DHT22;38455;52.710;6.502;2022-12-07T04:14:15;2.70;99.90
52555;DHT22;38455;52.710;6.502;2022-12-07T04:16:51;2.70;99.90
52555;DHT22;38455;52.710;6.502;2022-12-07T04:19:18;2.70;99.90
52555;DHT22;38455;52.710;6.502;2022-12-07T04:21:44;2.60;99.90
52555;DHT22;38455;52.710;6.502;2022-12-07T04:24:12;2.60;99.90
52555;DHT22;38455;52.710;6.502;2022-12-07T04:26:38;2.60;99.90
52555;DHT22;38455;52.710;6.502;2022-12-07T04:29:03;2.50;99.90
52555;DHT22;38455;52.710;6.502;2022-12-07T04:31:29;2.50;99.90
52555;DHT22;38455;52.710;6.502;2022-12-07T04:33:54;2.40;99.90
52555;DHT22;38455;52.710;6.502;2022-12-07T04:36:20;2.40;99.90
52555;DHT22;38455;52.710;6.502;2022-12-07T04:38:46;2.30;99.90
52555;DHT22;38455;52.710;6.502;2022-12-07T04:41:12;2.30;99.90
52555;DHT22;38455;52.710;6.502;2022-12-07T04:43:38;2.20;99.90
52555;DHT22;38455;52.710;6.502;2022-12-07T04:46:04;2.20;99.90
52555;DHT22;38455;52.710;6.502;2022-12-07T04:48:30;2.20;99.90
52555;DHT22;38455;52.710;6.502;2022-12-07T04:50:56;2.20;99.90
52555;DHT22;38455;52.710;6.502;2022-12-07T04:53:22;2.20;99.90
52555;DHT22;38455;52.710;6.502;2022-12-07T04:55:47;2.20;99.90
52555;DHT22;38455;52.710;6.502;2022-12-07T04:58:13;2.10;99.90
52555;DHT22;38455;52.710;6.502;2022-12-07T05:00:39;2.10;99.90
52555;DHT22;38455;52.710;6.502;2022-12-07T05:03:05;2.20;99.90
52555;DHT22;38455;52.710;6.502;2022-12-07T05:05:31;2.20;99.90
52555;DHT22;38455;52.710;6.502;2022-12-07T05:07:57;2.20;99.90
52555;DHT22;38455;52.710;6.502;2022-12-07T05:10:22;2.30;99.90
52555;DHT22;38455;52.710;6.502;2022-12-07T05:12:48;2.30;99.90
52555;DHT22;38455;52.710;6.502;2022-12-07T05:15:15;2.30;99.90
52555;DHT22;38455;52.710;6.502;2022-12-07T05:17:40;2.40;99.90
52555;DHT22;38455;52.710;6.502;2022-12-07T05:20:07;2.40;99.90
52555;DHT22;38455;52.710;6.502;2022-12-07T05:22:33;2.40;99.90
52555;DHT22;38455;52.710;6.502;2022-12-07T05:24:59;2.40;99.90
52555;DHT22;38455;52.710;6.502;2022-12-07T05:27:25;2.30;99.90
52555;DHT22;38455;52.710;6.502;2022-12-07T05:29:50;2.30;99.90
52555;DHT22;38455;52.710;6.502;2022-12-07T05:32:17;2.20;99.90
52555;DHT22;38455;52.710;6.502;2022-12-07T05:34:42;2.20;99.90
52555;DHT22;38455;52.710;6.502;2022-12-07T05:37:08;2.20;99.90
52555;DHT22;38455;52.710;6.502;2022-12-07T05:39:34;2.10;99.90
52555;DHT22;38455;52.710;6.502;2022-12-07T05:41:59;2.10;99.90
52555;DHT22;38455;52.710;6.502;2022-12-07T05:44:45;2.00;99.90
52555;DHT22;38455;52.710;6.502;2022-12-07T05:47:12;2.00;99.90
52555;DHT22;38455;52.710;6.502;2022-12-07T05:49:38;1.90;99.90
52555;DHT22;38455;52.710;6.502;2022-12-07T05:52:04;2.00;99.90
52555;DHT22;38455;52.710;6.502;2022-12-07T05:54:30;1.90;99.90
52555;DHT22;38455;52.710;6.502;2022-12-07T05:56:56;1.90;99.90
52555;DHT22;38455;52.710;6.502;2022-12-07T05:59:22;1.80;99.90
52555;DHT22;38455;52.710;6.502;2022-12-07T06:01:51;1.80;99.90
52555;DHT22;38455;52.710;6.502;2022-12-07T06:04:18;1.80;99.90
52555;DHT22;38455;52.710;6.502;2022-12-07T06:06:43;1.80;99.90
52555;DHT22;38455;52.710;6.502;2022-12-07T06:09:09;1.80;99.90
52555;DHT22;38455;52.710;6.502;2022-12-07T06:11:35;1.80;99.90
52555;DHT22;38455;52.710;6.502;2022-12-07T06:14:19;1.80;99.90
52555;DHT22;38455;52.710;6.502;2022-12-07T06:16:45;1.90;99.90
52555;DHT22;38455;52.710;6.502;2022-12-07T06:19:10;1.80;99.90
52555;DHT22;38455;52.710;6.502;2022-12-07T06:21:36;1.80;99.90
52555;DHT22;38455;52.710;6.502;2022-12-07T06:24:02;1.80;99.90
52555;DHT22;38455;52.710;6.502;2022-12-07T06:26:27;1.80;99.90
52555;DHT22;38455;52.710;6.502;2022-12-07T06:28:53;1.90;99.90
52555;DHT22;38455;52.710;6.502;2022-12-07T06:31:19;2.00;99.90
52555;DHT22;38455;52.710;6.502;2022-12-07T06:33:44;2.10;99.90
52555;DHT22;38455;52.710;6.502;2022-12-07T06:36:10;2.30;99.90
52555;DHT22;38455;52.710;6.502;2022-12-07T06:38:37;2.40;99.90
52555;DHT22;38455;52.710;6.502;2022-12-07T06:41:02;2.50;99.90
52555;DHT22;38455;52.710;6.502;2022-12-07T06:43:28;2.60;99.90
52555;DHT22;38455;52.710;6.502;2022-12-07T06:45:54;2.60;99.90
52555;DHT22;38455;52.710;6.502;2022-12-07T06:48:20;2.70;99.90
52555;DHT22;38455;52.710;6.502;2022-12-07T06:50:46;2.80;99.90
52555;DHT22;38455;52.710;6.502;2022-12-07T06:53:12;2.80;99.90
52555;DHT22;38455;52.710;6.502;2022-12-07T06:55:38;2.90;99.90
52555;DHT22;38455;52.710;6.502;2022-12-07T06:58:04;2.90;99.90
52555;DHT22;38455;52.710;6.502;2022-12-07T07:00:30;3.00;99.90
52555;DHT22;38455;52.710;6.502;2022-12-07T07:02:55;2.90;99.90
52555;DHT22;38455;52.710;6.502;2022-12-07T07:05:21;2.90;99.90
52555;DHT22;38455;52.710;6.502;2022-12-07T07:07:50;2.90;99.90
52555;DHT22;38455;52.710;6.502;2022-12-07T07:10:16;2.90;99.90
52555;DHT22;38455;52.710;6.502;2022-12-07T07:12:42;2.80;99.90
52555;DHT22;38455;52.710;6.502;2022-12-07T07:15:08;2.80;99.90
52555;DHT22;38455;52.710;6.502;2022-12-07T07:17:33;2.80;99.90
52555;DHT22;38455;52.710;6.502;2022-12-07T07:19:59;2.80;99.90
52555;DHT22;38455;52.710;6.502;2022-12-07T07:22:24;2.80;99.90
52555;DHT22;38455;52.710;6.502;2022-12-07T07:24:50;2.80;99.90
52555;DHT22;38455;52.710;6.502;2022-12-07T07:27:16;2.80;99.90
52555;DHT22;38455;52.710;6.502;2022-12-07T07:29:41;2.80;99.90
52555;DHT22;38455;52.710;6.502;2022-12-07T07:32:07;2.90;99.90
52555;DHT22;38455;52.710;6.502;2022-12-07T07:34:33;2.90;99.90
52555;DHT22;38455;52.710;6.502;2022-12-07T07:37:00;3.00;99.90
52555;DHT22;38455;52.710;6.502;2022-12-07T07:39:25;3.00;99.90
52555;DHT22;38455;52.710;6.502;2022-12-07T07:41:51;3.10;99.90
52555;DHT22;38455;52.710;6.502;2022-12-07T07:44:16;3.00;99.90
52555;DHT22;38455;52.710;6.502;2022-12-07T07:46:42;3.00;99.90
52555;DHT22;38455;52.710;6.502;2022-12-07T07:49:09;3.00;99.90
52555;DHT22;38455;52.710;6.502;2022-12-07T07:51:36;3.00;99.90
52555;DHT22;38455;52.710;6.502;2022-12-07T07:54:02;2.90;99.90
52555;DHT22;38455;52.710;6.502;2022-12-07T07:56:27;2.90;99.90
52555;DHT22;38455;52.710;6.502;2022-12-07T07:58:53;3.00;99.90
52555;DHT22;38455;52.710;6.502;2022-12-07T08:01:19;3.00;99.90
52555;DHT22;38455;52.710;6.502;2022-12-07T08:03:46;3.00;99.90
52555;DHT22;38455;52.710;6.502;2022-12-07T08:06:12;3.10;99.90
52555;DHT22;38455;52.710;6.502;2022-12-07T08:08:38;3.20;99.90
52555;DHT22;38455;52.710;6.502;2022-12-07T08:11:09;3.30;99.90
52555;DHT22;38455;52.710;6.502;2022-12-07T08:13:35;3.30;99.90
52555;DHT22;38455;52.710;6.502;2022-12-07T08:16:06;3.30;99.90
52555;DHT22;38455;52.710;6.502;2022-12-07T08:18:37;3.30;99.90
52555;DHT22;38455;52.710;6.502;2022-12-07T08:21:04;3.40;99.90
52555;DHT22;38455;52.710;6.502;2022-12-07T08:23:30;3.40;99.90
52555;DHT22;38455;52.710;6.502;2022-12-07T08:26:03;3.40;99.90
52555;DHT22;38455;52.710;6.502;2022-12-07T08:28:29;3.40;99.90
52555;DHT22;38455;52.710;6.502;2022-12-07T08:31:03;3.40;99.90
52555;DHT22;38455;52.710;6.502;2022-12-07T08:33:29;3.40;99.90
52555;DHT22;38455;52.710;6.502;2022-12-07T08:35:55;3.40;99.90
52555;DHT22;38455;52.710;6.502;2022-12-07T08:38:25;3.40;99.90
52555;DHT22;38455;52.710;6.502;2022-12-07T08:40:57;3.30;99.90
52555;DHT22;38455;52.710;6.502;2022-12-07T08:43:24;3.30;99.90
52555;DHT22;38455;52.710;6.502;2022-12-07T08:46:01;3.20;99.90
52555;DHT22;38455;52.710;6.502;2022-12-07T08:48:29;3.20;99.90
52555;DHT22;38455;52.710;6.502;2022-12-07T08:50:56;3.20;99.90
52555;DHT22;38455;52.710;6.502;2022-12-07T08:53:22;3.30;99.90
52555;DHT22;38455;52.710;6.502;2022-12-07T08:55:48;3.50;99.90
52555;DHT22;38455;52.710;6.502;2022-12-07T08:58:14;3.60;99.90
52555;DHT22;38455;52.710;6.502;2022-12-07T09:00:39;3.70;99.90
52555;DHT22;38455;52.710;6.502;2022-12-07T09:03:05;3.80;99.90
52555;DHT22;38455;52.710;6.502;2022-12-07T09:05:32;3.90;99.90
52555;DHT22;38455;52.710;6.502;2022-12-07T09:08:00;4.00;99.90
52555;DHT22;38455;52.710;6.502;2022-12-07T09:10:27;4.00;99.90
52555;DHT22;38455;52.710;6.502;2022-12-07T09:12:53;4.00;99.90
52555;DHT22;38455;52.710;6.502;2022-12-07T09:15:19;4.00;99.90
52555;DHT22;38455;52.710;6.502;2022-12-07T09:17:44;4.00;99.90
52555;DHT22;38455;52.710;6.502;2022-12-07T09:20:10;4.10;99.90
52555;DHT22;38455;52.710;6.502;2022-12-07T09:22:36;4.10;99.90
52555;DHT22;38455;52.710;6.502;2022-12-07T09:25:02;4.20;99.90
52555;DHT22;38455;52.710;6.502;2022-12-07T09:27:28;4.30;99.90
52555;DHT22;38455;52.710;6.502;2022-12-07T09:29:54;4.40;99.90
52555;DHT22;38455;52.710;6.502;2022-12-07T09:32:20;4.40;99.90
52555;DHT22;38455;52.710;6.502;2022-12-07T09:34:45;4.40;99.90
52555;DHT22;38455;52.710;6.502;2022-12-07T09:37:11;4.30;99.90
52555;DHT22;38455;52.710;6.502;2022-12-07T09:39:41;4.20;99.90
52555;DHT22;38455;52.710;6.502;2022-12-07T09:42:07;4.10;99.90
52555;DHT22;38455;52.710;6.502;2022-12-07T09:44:34;4.00;99.90
52555;DHT22;38455;52.710;6.502;2022-12-07T09:47:01;4.00;99.90
52555;DHT22;38455;52.710;6.502;2022-12-07T09:49:30;4.10;99.90
52555;DHT22;38455;52.710;6.502;2022-12-07T09:54:36;4.20;99.90
52555;DHT22;38455;52.710;6.502;2022-12-07T09:57:07;4.50;99.90
52555;DHT22;38455;52.710;6.502;2022-12-07T09:59:33;4.80;99.90
52555;DHT22;38455;52.710;6.502;2022-12-07T10:02:24;5.00;99.90
52555;DHT22;38455;52.710;6.502;2022-12-07T10:04:50;5.30;99.90
52555;DHT22;38455;52.710;6.502;2022-12-07T10:07:16;5.40;99.90
52555;DHT22;38455;52.710;6.502;2022-12-07T10:09:42;5.50;99.90
52555;DHT22;38455;52.710;6.502;2022-12-07T10:12:10;5.50;99.90
52555;DHT22;38455;52.710;6.502;2022-12-07T10:14:40;5.50;99.90
52555;DHT22;38455;52.710;6.502;2022-12-07T10:17:40;5.50;99.90
52555;DHT22;38455;52.710;6.502;2022-12-07T10:20:20;5.50;99.90
52555;DHT22;38455;52.710;6.502;2022-12-07T10:23:03;5.50;99.90
52555;DHT22;38455;52.710;6.502;2022-12-07T10:25:35;5.50;99.90
52555;DHT22;38455;52.710;6.502;2022-12-07T10:30:30;5.40;99.90
52555;DHT22;38455;52.710;6.502;2022-12-07T10:32:57;5.40;99.90
52555;DHT22;38455;52.710;6.502;2022-12-07T10:35:28;5.50;99.90
52555;DHT22;38455;52.710;6.502;2022-12-07T10:37:58;5.50;99.90
52555;DHT22;38455;52.710;6.502;2022-12-07T10:40:33;5.40;99.90
52555;DHT22;38455;52.710;6.502;2022-12-07T10:43:04;5.50;99.90
52555;DHT22;38455;52.710;6.502;2022-12-07T10:45:30;5.80;99.90
52555;DHT22;38455;52.710;6.502;2022-12-07T10:48:11;6.10;99.90
52555;DHT22;38455;52.710;6.502;2022-12-07T10:53:49;6.30;99.90
52555;DHT22;38455;52.710;6.502;2022-12-07T11:02:30;6.50;99.90
52555;DHT22;38455;52.710;6.502;2022-12-07T11:05:24;6.40;99.90
52555;DHT22;38455;52.710;6.502;2022-12-07T11:15:55;6.50;99.90
52555;DHT22;38455;52.710;6.502;2022-12-07T11:18:52;6.60;99.90
52555;DHT22;38455;52.710;6.502;2022-12-07T11:21:38;6.60;99.90
52555;DHT22;38455;52.710;6.502;2022-12-07T11:24:16;6.60;99.90
52555;DHT22;38455;52.710;6.502;2022-12-07T11:38:14;6.60;99.90
52555;DHT22;38455;52.710;6.502;2022-12-07T11:40:49;6.70;99.90
52555;DHT22;38455;52.710;6.502;2022-12-07T11:43:27;6.70;99.90
52555;DHT22;38455;52.710;6.502;2022-12-07T11:46:14;6.70;99.90
52555;DHT22;38455;52.710;6.502;2022-12-07T11:48:47;6.70;99.90
52555;DHT22;38455;52.710;6.502;2022-12-07T11:51:18;6.70;99.90
52555;DHT22;38455;52.710;6.502;2022-12-07T11:53:55;6.80;99.90
52555;DHT22;38455;52.710;6.502;2022-12-07T11:56:27;6.60;99.90
52555;DHT22;38455;52.710;6.502;2022-12-07T11:58:58;6.70;99.90
52555;DHT22;38455;52.710;6.502;2022-12-07T12:04:13;6.40;99.90
52555;DHT22;38455;52.710;6.502;2022-12-07T12:06:44;6.50;99.90
52555;DHT22;38455;52.710;6.502;2022-12-07T12:09:20;6.50;99.90
52555;DHT22;38455;52.710;6.502;2022-12-07T12:12:01;6.70;99.90
52555;DHT22;38455;52.710;6.502;2022-12-07T12:24:37;7.00;99.90
52555;DHT22;38455;52.710;6.502;2022-12-07T12:27:16;7.00;99.90
52555;DHT22;38455;52.710;6.502;2022-12-07T12:29:43;7.00;99.90
52555;DHT22;38455;52.710;6.502;2022-12-07T12:32:29;6.90;99.90
52555;DHT22;38455;52.710;6.502;2022-12-07T12:42:48;6.90;99.90
52555;DHT22;38455;52.710;6.502;2022-12-07T12:45:25;7.10;99.90
52555;DHT22;38455;52.710;6.502;2022-12-07T12:50:22;7.40;99.90
52555;DHT22;38455;52.710;6.502;2022-12-07T12:52:52;7.30;99.90
52555;DHT22;38455;52.710;6.502;2022-12-07T12:55:25;7.40;99.90
52555;DHT22;38455;52.710;6.502;2022-12-07T13:03:56;7.30;99.90
52555;DHT22;38455;52.710;6.502;2022-12-07T13:08:53;7.20;99.90
52555;DHT22;38455;52.710;6.502;2022-12-07T13:16:59;7.10;99.90
52555;DHT22;38455;52.710;6.502;2022-12-07T13:22:34;6.90;99.90
52555;DHT22;38455;52.710;6.502;2022-12-07T13:25:26;7.00;99.90
52555;DHT22;38455;52.710;6.502;2022-12-07T13:28:23;7.00;99.90
52555;DHT22;38455;52.710;6.502;2022-12-07T13:31:19;7.00;99.90
52555;DHT22;38455;52.710;6.502;2022-12-07T13:33:47;7.00;99.90
52555;DHT22;38455;52.710;6.502;2022-12-07T13:36:27;7.10;99.90
52555;DHT22;38455;52.710;6.502;2022-12-07T13:38:55;7.10;99.90
52555;DHT22;38455;52.710;6.502;2022-12-07T13:41:26;7.10;99.90
52555;DHT22;38455;52.710;6.502;2022-12-07T13:44:05;7.10;99.90
52555;DHT22;38455;52.710;6.502;2022-12-07T13:49:27;7.00;99.90
52555;DHT22;38455;52.710;6.502;2022-12-07T13:51:55;6.80;99.90
52555;DHT22;38455;52.710;6.502;2022-12-07T13:54:32;6.70;99.90
52555;DHT22;38455;52.710;6.502;2022-12-07T13:56:58;6.60;99.90
52555;DHT22;38455;52.710;6.502;2022-12-07T13:59:25;6.30;99.90
52555;DHT22;38455;52.710;6.502;2022-12-07T14:01:52;6.10;99.90
52555;DHT22;38455;52.710;6.502;2022-12-07T14:04:37;6.00;99.90
52555;DHT22;38455;52.710;6.502;2022-12-07T14:07:25;5.90;99.90
52555;DHT22;38455;52.710;6.502;2022-12-07T14:10:05;5.80;99.90
52555;DHT22;38455;52.710;6.502;2022-12-07T14:12:32;5.80;99.90
52555;DHT22;38455;52.710;6.502;2022-12-07T14:14:59;5.80;99.90
52555;DHT22;38455;52.710;6.502;2022-12-07T14:17:27;5.80;99.90
52555;DHT22;38455;52.710;6.502;2022-12-07T14:19:57;5.70;99.90
52555;DHT22;38455;52.710;6.502;2022-12-07T14:22:27;5.80;99.90
52555;DHT22;38455;52.710;6.502;2022-12-07T14:27:33;5.80;99.90
52555;DHT22;38455;52.710;6.502;2022-12-07T14:30:00;5.80;99.90
52555;DHT22;38455;52.710;6.502;2022-12-07T14:32:28;5.80;99.90
52555;DHT22;38455;52.710;6.502;2022-12-07T14:35:09;5.70;99.90
52555;DHT22;38455;52.710;6.502;2022-12-07T14:37:36;5.70;99.90
52555;DHT22;38455;52.710;6.502;2022-12-07T14:40:03;5.70;99.90
52555;DHT22;38455;52.710;6.502;2022-12-07T14:42:30;5.60;99.90
52555;DHT22;38455;52.710;6.502;2022-12-07T14:44:57;5.60;99.90
52555;DHT22;38455;52.710;6.502;2022-12-07T14:47:24;5.50;99.90
52555;DHT22;38455;52.710;6.502;2022-12-07T14:49:50;5.50;99.90
52555;DHT22;38455;52.710;6.502;2022-12-07T14:52:20;5.50;99.90
52555;DHT22;38455;52.710;6.502;2022-12-07T14:54:46;5.40;99.90
52555;DHT22;38455;52.710;6.502;2022-12-07T14:57:12;5.40;99.90
52555;DHT22;38455;52.710;6.502;2022-12-07T14:59:38;5.30;99.90
52555;DHT22;38455;52.710;6.502;2022-12-07T15:02:04;5.30;99.90
52555;DHT22;38455;52.710;6.502;2022-12-07T15:04:30;5.20;99.90
52555;DHT22;38455;52.710;6.502;2022-12-07T15:07:01;5.20;99.90
52555;DHT22;38455;52.710;6.502;2022-12-07T15:09:27;5.10;99.90
52555;DHT22;38455;52.710;6.502;2022-12-07T15:11:53;5.00;99.90
52555;DHT22;38455;52.710;6.502;2022-12-07T15:14:18;5.00;99.90
52555;DHT22;38455;52.710;6.502;2022-12-07T15:16:44;5.00;99.90
52555;DHT22;38455;52.710;6.502;2022-12-07T15:19:21;5.00;99.90
52555;DHT22;38455;52.710;6.502;2022-12-07T15:21:52;5.00;99.90
52555;DHT22;38455;52.710;6.502;2022-12-07T15:24:18;5.00;99.90
52555;DHT22;38455;52.710;6.502;2022-12-07T15:26:43;5.00;99.90
52555;DHT22;38455;52.710;6.502;2022-12-07T15:29:10;5.00;99.90
52555;DHT22;38455;52.710;6.502;2022-12-07T15:31:35;5.00;99.90
52555;DHT22;38455;52.710;6.502;2022-12-07T15:34:02;5.10;99.90
52555;DHT22;38455;52.710;6.502;2022-12-07T15:36:30;5.10;99.90
52555;DHT22;38455;52.710;6.502;2022-12-07T15:38:56;5.00;99.90
52555;DHT22;38455;52.710;6.502;2022-12-07T15:41:22;5.00;99.90
52555;DHT22;38455;52.710;6.502;2022-12-07T15:43:48;5.20;99.90
52555;DHT22;38455;52.710;6.502;2022-12-07T15:46:34;5.00;99.90
52555;DHT22;38455;52.710;6.502;2022-12-07T15:49:00;5.00;99.90
52555;DHT22;38455;52.710;6.502;2022-12-07T15:51:26;5.00;99.90
52555;DHT22;38455;52.710;6.502;2022-12-07T15:53:53;4.90;99.90
52555;DHT22;38455;52.710;6.502;2022-12-07T15:56:19;4.90;99.90
52555;DHT22;38455;52.710;6.502;2022-12-07T15:58:45;4.90;99.90
52555;DHT22;38455;52.710;6.502;2022-12-07T16:01:17;4.80;99.90
52555;DHT22;38455;52.710;6.502;2022-12-07T16:03:44;4.80;99.90
52555;DHT22;38455;52.710;6.502;2022-12-07T16:06:10;4.80;99.90
52555;DHT22;38455;52.710;6.502;2022-12-07T16:08:36;4.70;99.90
52555;DHT22;38455;52.710;6.502;2022-12-07T16:11:06;4.60;99.90
52555;DHT22;38455;52.710;6.502;2022-12-07T16:13:34;4.60;99.90
52555;DHT22;38455;52.710;6.502;2022-12-07T16:16:09;4.50;99.90
52555;DHT22;38455;52.710;6.502;2022-12-07T16:18:35;4.50;99.90
52555;DHT22;38455;52.710;6.502;2022-12-07T16:21:01;4.40;99.90
52555;DHT22;38455;52.710;6.502;2022-12-07T16:23:27;4.30;99.90
52555;DHT22;38455;52.710;6.502;2022-12-07T16:25:52;4.20;99.90
52555;DHT22;38455;52.710;6.502;2022-12-07T16:28:18;4.20;99.90
52555;DHT22;38455;52.710;6.502;2022-12-07T16:30:44;4.20;99.90
52555;DHT22;38455;52.710;6.502;2022-12-07T16:33:10;4.20;99.90
52555;DHT22;38455;52.710;6.502;2022-12-07T16:35:38;4.20;99.90
52555;DHT22;38455;52.710;6.502;2022-12-07T16:38:06;4.20;99.90
52555;DHT22;38455;52.710;6.502;2022-12-07T16:40:32;4.20;99.90
52555;DHT22;38455;52.710;6.502;2022-12-07T16:42:57;4.30;99.90
52555;DHT22;38455;52.710;6.502;2022-12-07T16:45:23;4.20;99.90
52555;DHT22;38455;52.710;6.502;2022-12-07T16:47:49;4.30;99.90
52555;DHT22;38455;52.710;6.502;2022-12-07T16:50:15;4.30;99.90
52555;DHT22;38455;52.710;6.502;2022-12-07T16:52:40;4.30;99.90
52555;DHT22;38455;52.710;6.502;2022-12-07T16:55:06;4.30;99.90
52555;DHT22;38455;52.710;6.502;2022-12-07T16:57:32;4.30;99.90
52555;DHT22;38455;52.710;6.502;2022-12-07T16:59:58;4.30;99.90
52555;DHT22;38455;52.710;6.502;2022-12-07T17:02:25;4.30;99.90
52555;DHT22;38455;52.710;6.502;2022-12-07T17:04:51;4.30;99.90
52555;DHT22;38455;52.710;6.502;2022-12-07T17:07:17;4.30;99.90
52555;DHT22;38455;52.710;6.502;2022-12-07T17:09:42;4.30;99.90
52555;DHT22;38455;52.710;6.502;2022-12-07T17:12:08;4.30;99.90
52555;DHT22;38455;52.710;6.502;2022-12-07T17:14:34;4.30;99.90
52555;DHT22;38455;52.710;6.502;2022-12-07T17:17:18;4.30;99.90
52555;DHT22;38455;52.710;6.502;2022-12-07T17:19:44;4.30;99.90
52555;DHT22;38455;52.710;6.502;2022-12-07T17:22:10;4.30;99.90
52555;DHT22;38455;52.710;6.502;2022-12-07T17:24:38;4.30;99.90
52555;DHT22;38455;52.710;6.502;2022-12-07T17:27:04;4.30;99.90
52555;DHT22;38455;52.710;6.502;2022-12-07T17:29:30;4.30;99.90
52555;DHT22;38455;52.710;6.502;2022-12-07T17:31:55;4.20;99.90
52555;DHT22;38455;52.710;6.502;2022-12-07T17:34:21;4.20;99.90
52555;DHT22;38455;52.710;6.502;2022-12-07T17:36:47;4.20;99.90
52555;DHT22;38455;52.710;6.502;2022-12-07T17:39:15;4.20;99.90
52555;DHT22;38455;52.710;6.502;2022-12-07T17:41:42;4.10;99.90
52555;DHT22;38455;52.710;6.502;2022-12-07T17:44:27;4.10;99.90
52555;DHT22;38455;52.710;6.502;2022-12-07T17:46:53;4.10;99.90
52555;DHT22;38455;52.710;6.502;2022-12-07T17:49:23;4.10;99.90
52555;DHT22;38455;52.710;6.502;2022-12-07T17:51:49;4.10;99.90